createdAt,value
2023-03-31T00:01:06.786Z,18.08
2023-03-31T00:03:34.307Z,18.10
2023-03-31T00:06:01.171Z,18.12
2023-03-31T00:08:35.731Z,18.13
2023-03-31T00:11:04.950Z,18.14
2023-03-31T00:13:31.544Z,18.15
2023-03-31T00:16:01.090Z,18.15
2023-03-31T00:18:28.360Z,18.15
2023-03-31T00:20:54.729Z,18.16
2023-03-31T00:23:28.883Z,18.14
2023-03-31T00:25:55.794Z,18.15
2023-03-31T00:28:22.387Z,18.12
2023-03-31T00:30:49.548Z,18.11
2023-03-31T00:33:15.837Z,18.09
2023-03-31T00:35:43.844Z,18.06
2023-03-31T00:38:13.885Z,18.04
2023-03-31T00:40:46.556Z,18.00
2023-03-31T00:43:39.200Z,17.94
2023-03-31T00:46:17.930Z,17.92
2023-03-31T00:48:51.532Z,17.89
2023-03-31T00:51:20.159Z,17.87
2023-03-31T00:53:55.568Z,17.83
2023-03-31T00:56:22.245Z,17.82
2023-03-31T00:58:50.053Z,17.79
2023-03-31T01:01:20.651Z,17.76
2023-03-31T01:03:48.013Z,17.74
2023-03-31T01:06:19.752Z,17.72
2023-03-31T01:08:49.109Z,17.70
2023-03-31T01:11:19.028Z,17.70
2023-03-31T01:13:49.992Z,17.71
2023-03-31T01:16:18.343Z,17.68
2023-03-31T01:18:49.594Z,17.68
2023-03-31T01:21:59.878Z,17.66
2023-03-31T01:24:39.143Z,17.69
2023-03-31T01:27:22.283Z,17.64
2023-03-31T01:30:19.864Z,17.62
2023-03-31T01:33:13.872Z,17.61
2023-03-31T01:36:24.430Z,17.59
2023-03-31T01:39:15.068Z,17.63
2023-03-31T01:42:08.433Z,17.59
2023-03-31T01:44:45.424Z,17.60
2023-03-31T01:47:23.028Z,17.62
2023-03-31T01:50:08.423Z,17.62
2023-03-31T01:52:44.641Z,17.63
2023-03-31T01:55:31.698Z,17.63
2023-03-31T01:58:06.810Z,17.66
2023-03-31T02:00:42.201Z,17.67
2023-03-31T02:03:18.152Z,17.65
2023-03-31T02:05:51.402Z,17.65
2023-03-31T02:08:25.062Z,17.65
2023-03-31T02:10:53.161Z,17.64
2023-03-31T02:13:23.323Z,17.62
2023-03-31T02:15:57.915Z,17.60
2023-03-31T02:18:30.714Z,17.59
2023-03-31T02:20:59.087Z,17.61
2023-03-31T02:23:29.532Z,17.60
2023-03-31T02:26:05.193Z,17.60
2023-03-31T02:28:32.006Z,17.62
2023-03-31T02:31:33.264Z,17.59
2023-03-31T02:34:01.310Z,17.66
2023-03-31T02:36:27.985Z,17.66
2023-03-31T02:38:59.523Z,17.63
2023-03-31T02:41:26.089Z,17.64
2023-03-31T02:43:52.493Z,17.62
2023-03-31T02:46:19.356Z,17.61
2023-03-31T02:48:51.598Z,17.60
2023-03-31T02:51:47.651Z,17.58
2023-03-31T02:54:37.158Z,17.63
2023-03-31T02:57:25.974Z,17.59
2023-03-31T03:00:09.563Z,17.57
2023-03-31T03:02:58.134Z,17.55
2023-03-31T03:05:50.009Z,17.52
2023-03-31T03:08:32.599Z,17.51
2023-03-31T03:10:58.849Z,17.51
2023-03-31T03:13:41.246Z,17.47
2023-03-31T03:16:19.196Z,17.46
2023-03-31T03:18:56.317Z,17.47
2023-03-31T03:21:22.802Z,17.49
2023-03-31T03:23:49.141Z,17.48
2023-03-31T03:26:21.247Z,17.47
2023-03-31T03:28:49.184Z,17.46
2023-03-31T03:31:15.853Z,17.45
2023-03-31T03:33:42.859Z,17.43
2023-03-31T03:36:11.246Z,17.43
2023-03-31T03:38:37.757Z,17.44
2023-03-31T03:41:04.481Z,17.45
2023-03-31T03:43:31.245Z,17.43
2023-03-31T03:45:57.852Z,17.44
2023-03-31T03:48:24.416Z,17.45
2023-03-31T03:50:51.234Z,17.45
2023-03-31T03:53:17.583Z,17.44
2023-03-31T03:55:45.183Z,17.44
2023-03-31T03:58:11.594Z,17.44
2023-03-31T04:00:37.936Z,17.41
2023-03-31T04:03:04.325Z,17.40
2023-03-31T04:05:30.708Z,17.39
2023-03-31T04:07:57.331Z,17.39
2023-03-31T04:10:23.629Z,17.38
2023-03-31T04:12:50.446Z,17.37
2023-03-31T04:15:17.011Z,17.36
2023-03-31T04:17:50.816Z,17.36
2023-03-31T04:20:17.624Z,17.36
2023-03-31T04:22:47.234Z,17.35
2023-03-31T04:25:17.201Z,17.34
2023-03-31T04:27:50.622Z,17.35
2023-03-31T04:30:23.096Z,17.36
2023-03-31T04:32:55.544Z,17.36
2023-03-31T04:35:24.320Z,17.37
2023-03-31T04:37:52.483Z,17.37
2023-03-31T04:40:19.673Z,17.39
2023-03-31T04:42:46.285Z,17.39
2023-03-31T04:45:13.281Z,17.38
2023-03-31T04:47:39.745Z,17.38
2023-03-31T04:50:06.920Z,17.37
2023-03-31T04:52:33.304Z,17.37
2023-03-31T04:54:59.603Z,17.37
2023-03-31T04:57:25.992Z,17.36
2023-03-31T04:59:52.629Z,17.36
2023-03-31T05:02:25.298Z,17.37
2023-03-31T05:04:52.330Z,17.36
2023-03-31T05:07:19.311Z,17.38
2023-03-31T05:09:46.388Z,17.35
2023-03-31T05:12:12.761Z,17.36
2023-03-31T05:14:39.384Z,17.34
2023-03-31T05:17:06.108Z,17.35
2023-03-31T05:19:32.850Z,17.33
2023-03-31T05:21:59.334Z,17.32
2023-03-31T05:24:28.393Z,17.31
2023-03-31T05:26:55.805Z,17.29
2023-03-31T05:29:22.157Z,17.29
2023-03-31T05:31:48.496Z,17.26
2023-03-31T05:34:15.722Z,17.25
2023-03-31T05:36:43.697Z,17.24
2023-03-31T05:39:10.211Z,17.24
2023-03-31T05:41:36.593Z,17.23
2023-03-31T05:44:03.192Z,17.22
2023-03-31T05:46:29.628Z,17.23
2023-03-31T05:48:56.506Z,17.21
2023-03-31T05:51:23.253Z,17.19
2023-03-31T05:53:49.746Z,17.19
2023-03-31T05:56:16.289Z,17.17
2023-03-31T05:58:42.656Z,17.15
2023-03-31T06:01:19.391Z,17.13
2023-03-31T06:03:46.770Z,17.12
2023-03-31T06:06:14.736Z,17.11
2023-03-31T06:08:41.398Z,17.11
2023-03-31T06:11:11.468Z,17.10
2023-03-31T06:13:39.517Z,17.10
2023-03-31T06:16:06.965Z,17.11
2023-03-31T06:18:35.774Z,17.12
2023-03-31T06:21:02.778Z,17.12
2023-03-31T06:23:29.576Z,17.14
2023-03-31T06:26:03.413Z,17.13
2023-03-31T06:28:29.830Z,17.15
2023-03-31T06:31:01.167Z,17.16
2023-03-31T06:33:27.653Z,17.18
2023-03-31T06:35:57.540Z,17.20
2023-03-31T06:38:24.803Z,17.23
2023-03-31T06:40:51.498Z,17.26
2023-03-31T06:43:17.835Z,17.27
2023-03-31T06:45:44.476Z,17.28
2023-03-31T06:48:11.187Z,17.29
2023-03-31T06:50:38.679Z,17.31
2023-03-31T06:53:05.695Z,17.33
2023-03-31T06:55:33.966Z,17.36
2023-03-31T06:58:00.687Z,17.38
2023-03-31T07:00:27.373Z,17.40
2023-03-31T07:02:54.758Z,17.41
2023-03-31T07:05:27.266Z,17.41
2023-03-31T07:07:57.416Z,17.42
2023-03-31T07:10:26.093Z,17.44
2023-03-31T07:12:52.623Z,17.43
2023-03-31T07:15:19.480Z,17.44
2023-03-31T07:17:45.885Z,17.41
2023-03-31T07:20:17.730Z,17.39
2023-03-31T07:22:45.945Z,17.34
2023-03-31T07:25:15.969Z,17.33
2023-03-31T07:27:43.020Z,17.31
2023-03-31T07:30:16.736Z,17.26
2023-03-31T07:32:47.514Z,17.24
2023-03-31T07:35:13.939Z,17.23
2023-03-31T07:37:43.440Z,17.20
2023-03-31T07:40:13.229Z,17.18
2023-03-31T07:42:39.632Z,17.16
2023-03-31T07:45:09.168Z,17.14
2023-03-31T07:47:36.412Z,17.14
2023-03-31T07:50:03.511Z,17.11
2023-03-31T07:52:30.100Z,17.11
2023-03-31T07:54:56.470Z,17.09
2023-03-31T07:57:22.904Z,17.10
2023-03-31T07:59:49.677Z,17.10
2023-03-31T08:02:19.460Z,17.08
2023-03-31T08:04:47.150Z,17.10
2023-03-31T08:07:15.296Z,17.11
2023-03-31T08:09:44.386Z,17.10
2023-03-31T08:12:11.289Z,17.09
2023-03-31T08:14:41.295Z,17.05
2023-03-31T08:17:08.477Z,17.01
2023-03-31T08:19:34.841Z,16.99
2023-03-31T08:22:01.242Z,16.97
2023-03-31T08:24:27.542Z,16.96
2023-03-31T08:26:54.701Z,16.95
2023-03-31T08:29:21.314Z,16.95
2023-03-31T08:31:48.417Z,16.95
2023-03-31T08:34:16.140Z,16.99
2023-03-31T08:36:42.935Z,17.00
2023-03-31T08:39:21.458Z,17.04
2023-03-31T08:42:00.324Z,17.05
2023-03-31T08:44:51.244Z,17.10
2023-03-31T08:47:24.433Z,17.16
2023-03-31T08:49:56.974Z,17.20
2023-03-31T08:52:29.200Z,17.23
2023-03-31T08:54:59.871Z,17.27
2023-03-31T08:57:31.704Z,17.32
2023-03-31T09:00:07.020Z,17.35
2023-03-31T09:02:52.813Z,17.35
2023-03-31T09:05:45.938Z,17.38
2023-03-31T09:08:36.079Z,17.40
2023-03-31T09:11:13.145Z,17.36
2023-03-31T09:14:04.406Z,17.36
2023-03-31T09:16:59.951Z,17.35
2023-03-31T09:19:41.888Z,17.36
2023-03-31T09:22:45.106Z,17.37
2023-03-31T09:25:16.567Z,17.42
2023-03-31T09:27:45.070Z,17.43
2023-03-31T09:30:21.960Z,17.44
2023-03-31T09:32:52.440Z,17.47
2023-03-31T09:35:29.121Z,17.46
2023-03-31T09:37:55.783Z,17.46
2023-03-31T09:40:25.416Z,17.46
2023-03-31T09:43:14.231Z,17.44
2023-03-31T09:45:40.807Z,17.47
2023-03-31T09:48:16.654Z,17.47
2023-03-31T09:50:52.168Z,17.49
2023-03-31T09:53:28.447Z,17.53
2023-03-31T09:56:00.542Z,17.58
2023-03-31T09:58:27.094Z,17.61
2023-03-31T10:01:01.676Z,17.63
2023-03-31T10:03:30.877Z,17.71
2023-03-31T10:06:00.714Z,17.77
2023-03-31T10:08:32.556Z,17.80
2023-03-31T10:11:01.925Z,17.87
2023-03-31T10:14:03.997Z,17.94
2023-03-31T10:16:32.638Z,18.04
2023-03-31T10:19:11.688Z,18.13
2023-03-31T10:21:38.833Z,18.22
2023-03-31T10:24:10.474Z,18.26
2023-03-31T10:26:37.826Z,18.29
2023-03-31T10:29:12.860Z,18.29
2023-03-31T10:31:39.962Z,18.30
2023-03-31T10:34:09.583Z,18.30
2023-03-31T10:36:36.229Z,18.30
2023-03-31T10:39:07.702Z,18.28
2023-03-31T10:41:34.230Z,18.28
2023-03-31T10:44:07.300Z,18.27
2023-03-31T10:46:48.922Z,18.27
2023-03-31T10:49:21.238Z,18.30
2023-03-31T10:51:56.044Z,18.34
2023-03-31T10:54:22.628Z,18.41
2023-03-31T10:56:53.882Z,18.44
2023-03-31T10:59:41.342Z,18.49
2023-03-31T11:03:02.686Z,18.54
2023-03-31T11:05:51.337Z,18.62
2023-03-31T11:08:46.915Z,18.65
2023-03-31T11:11:16.451Z,18.69
2023-03-31T11:14:13.292Z,18.68
2023-03-31T11:17:09.819Z,18.69
2023-03-31T11:19:58.901Z,18.68
2023-03-31T11:22:34.675Z,18.70
2023-03-31T11:25:16.818Z,18.71
2023-03-31T11:27:58.609Z,18.73
2023-03-31T11:30:47.387Z,18.79
2023-03-31T11:33:38.201Z,18.83
2023-03-31T11:36:46.703Z,18.93
2023-03-31T11:39:37.014Z,19.06
2023-03-31T11:42:08.534Z,19.19
2023-03-31T11:44:43.800Z,19.31
2023-03-31T11:47:18.552Z,19.43
2023-03-31T11:49:54.155Z,19.55
2023-03-31T11:52:35.175Z,19.67
2023-03-31T11:55:16.532Z,19.79
2023-03-31T11:57:51.339Z,19.87
2023-03-31T12:00:22.810Z,19.83
2023-03-31T12:02:58.418Z,19.61
2023-03-31T12:05:28.131Z,19.36
2023-03-31T12:08:05.852Z,19.05
2023-03-31T12:10:41.845Z,18.83
2023-03-31T12:13:22.003Z,18.55
2023-03-31T12:16:01.364Z,18.37
2023-03-31T12:18:31.646Z,18.26
2023-03-31T12:21:02.540Z,18.15
2023-03-31T12:23:34.223Z,18.08
2023-03-31T12:26:22.944Z,18.01
2023-03-31T12:28:55.815Z,18.01
2023-03-31T12:31:24.763Z,18.00
2023-03-31T12:34:05.027Z,18.00
2023-03-31T12:36:43.326Z,18.01
2023-03-31T12:39:37.717Z,18.05
2023-03-31T12:42:43.030Z,18.11
2023-03-31T12:45:31.775Z,18.19
2023-03-31T12:48:20.281Z,18.26
2023-03-31T12:51:20.239Z,18.34
2023-03-31T12:54:18.733Z,18.46
2023-03-31T12:57:00.552Z,18.58
2023-03-31T12:59:33.187Z,18.70
2023-03-31T13:02:15.356Z,18.82
2023-03-31T13:04:43.243Z,18.94
2023-03-31T13:07:33.303Z,19.05
2023-03-31T13:10:26.082Z,19.14
2023-03-31T13:13:02.690Z,19.22
2023-03-31T13:15:32.499Z,19.31
2023-03-31T13:18:19.767Z,19.32
2023-03-31T13:20:46.474Z,19.40
2023-03-31T13:23:22.574Z,19.41
2023-03-31T13:25:51.312Z,19.45
2023-03-31T13:28:42.349Z,19.41
2023-03-31T13:31:14.792Z,19.39
2023-03-31T13:33:44.427Z,19.38
2023-03-31T13:36:33.140Z,19.35
2023-03-31T13:39:30.659Z,19.38
2023-03-31T13:42:29.765Z,19.42
2023-03-31T13:45:20.782Z,19.46
2023-03-31T13:48:04.181Z,19.52
2023-03-31T13:50:49.114Z,19.56
2023-03-31T13:53:39.879Z,19.62
2023-03-31T13:56:14.072Z,19.70
2023-03-31T13:59:31.540Z,19.73
2023-03-31T14:02:35.372Z,19.82
2023-03-31T14:05:37.153Z,19.88
2023-03-31T14:08:12.157Z,19.93
2023-03-31T14:10:40.913Z,19.97
2023-03-31T14:13:10.384Z,19.97
2023-03-31T14:15:42.297Z,19.98
2023-03-31T14:18:13.692Z,19.98
2023-03-31T14:20:59.850Z,19.96
2023-03-31T14:23:35.227Z,20.03
2023-03-31T14:26:30.260Z,20.03
2023-03-31T14:29:11.450Z,20.08
2023-03-31T14:31:49.988Z,20.11
2023-03-31T14:34:34.550Z,20.13
2023-03-31T14:37:04.778Z,20.17
2023-03-31T14:39:35.458Z,20.18
2023-03-31T14:42:11.321Z,20.16
2023-03-31T14:44:42.738Z,20.17
2023-03-31T14:47:15.432Z,20.18
2023-03-31T14:49:42.289Z,20.23
2023-03-31T14:52:18.507Z,20.22
2023-03-31T14:54:47.730Z,20.26
2023-03-31T14:57:28.745Z,20.24
2023-03-31T14:59:55.697Z,20.27
2023-03-31T15:02:37.514Z,20.25
2023-03-31T15:05:07.860Z,20.28
2023-03-31T15:07:34.906Z,20.29
2023-03-31T15:10:02.667Z,20.29
2023-03-31T15:12:29.737Z,20.29
2023-03-31T15:15:03.858Z,20.29
2023-03-31T15:17:36.506Z,20.30
2023-03-31T15:20:37.618Z,20.29
2023-03-31T15:23:21.637Z,20.33
2023-03-31T15:25:48.510Z,20.37
2023-03-31T15:28:17.663Z,20.37
2023-03-31T15:30:47.660Z,20.40
2023-03-31T15:33:22.549Z,20.40
2023-03-31T15:35:49.303Z,20.43
2023-03-31T15:38:18.409Z,20.45
2023-03-31T15:40:49.433Z,20.48
2023-03-31T15:46:02.250Z,20.46
2023-03-31T15:48:36.785Z,20.47
2023-03-31T15:51:41.117Z,20.44
2023-03-31T15:54:34.884Z,20.39
2023-03-31T15:57:04.179Z,20.37
2023-03-31T15:59:54.829Z,20.29
2023-03-31T16:02:25.794Z,20.18
2023-03-31T16:04:57.101Z,20.07
2023-03-31T16:07:28.546Z,19.93
2023-03-31T16:10:17.555Z,19.72
2023-03-31T16:12:50.690Z,19.47
2023-03-31T16:15:23.799Z,19.27
2023-03-31T16:18:02.099Z,19.03
2023-03-31T16:20:40.633Z,18.82
2023-03-31T16:23:18.427Z,18.67
2023-03-31T16:25:46.029Z,18.56
2023-03-31T16:28:22.491Z,18.41
2023-03-31T16:30:49.505Z,18.33
2023-03-31T16:33:18.840Z,18.25
2023-03-31T16:35:55.906Z,18.19
2023-03-31T16:38:24.785Z,18.16
2023-03-31T16:40:54.096Z,18.13
2023-03-31T16:43:23.447Z,18.11
2023-03-31T16:45:55.477Z,18.07
2023-03-31T16:48:25.686Z,18.07
2023-03-31T16:50:54.437Z,18.06
2023-03-31T16:53:30.084Z,18.06
2023-03-31T16:55:58.249Z,18.08
2023-03-31T16:58:26.159Z,18.07
2023-03-31T17:00:53.266Z,18.07
2023-03-31T17:03:20.502Z,18.07
2023-03-31T17:05:51.404Z,18.07
2023-03-31T17:08:18.642Z,18.07
2023-03-31T17:10:59.621Z,18.05
2023-03-31T17:13:26.492Z,18.07
2023-03-31T17:18:39.997Z,18.06
2023-03-31T17:21:08.936Z,18.06
2023-03-31T17:23:36.525Z,18.05
2023-03-31T17:26:04.189Z,18.04
2023-03-31T17:28:31.444Z,18.06
2023-03-31T17:30:58.528Z,18.04
2023-03-31T17:33:25.830Z,18.03
2023-03-31T17:35:56.809Z,18.02
2023-03-31T17:38:23.159Z,18.02
2023-03-31T17:40:49.716Z,18.02
2023-03-31T17:43:16.610Z,18.03
2023-03-31T17:45:42.998Z,18.03
2023-03-31T17:48:10.109Z,18.03
2023-03-31T17:50:38.284Z,18.04
2023-03-31T17:53:09.062Z,18.06
2023-03-31T17:55:38.211Z,18.05
2023-03-31T17:58:06.431Z,18.07
2023-03-31T18:00:33.025Z,18.07
2023-03-31T18:02:59.456Z,18.07
2023-03-31T18:05:26.090Z,18.07
2023-03-31T18:07:53.470Z,18.09
2023-03-31T18:10:20.283Z,18.10
2023-03-31T18:12:46.790Z,18.11
2023-03-31T18:15:13.349Z,18.09
2023-03-31T18:17:39.703Z,18.09
2023-03-31T18:20:06.592Z,18.08
2023-03-31T18:22:32.936Z,18.07
2023-03-31T18:24:59.361Z,18.03
2023-03-31T18:27:25.681Z,18.02
2023-03-31T18:29:52.395Z,18.00
2023-03-31T18:32:18.868Z,17.98
2023-03-31T18:34:45.674Z,17.95
2023-03-31T18:37:12.498Z,17.94
2023-03-31T18:39:38.915Z,17.93
2023-03-31T18:42:05.493Z,17.91
2023-03-31T18:44:32.237Z,17.90
2023-03-31T18:46:58.645Z,17.89
2023-03-31T18:49:25.296Z,17.86
2023-03-31T18:51:52.011Z,17.82
2023-03-31T18:54:18.407Z,17.80
2023-03-31T18:56:44.806Z,17.77
2023-03-31T18:59:11.143Z,17.74
2023-03-31T19:01:40.111Z,17.71
2023-03-31T19:04:07.659Z,17.65
2023-03-31T19:06:34.180Z,17.63
2023-03-31T19:09:01.194Z,17.62
2023-03-31T19:11:28.790Z,17.58
2023-03-31T19:13:55.941Z,17.57
2023-03-31T19:16:24.437Z,17.53
2023-03-31T19:18:51.121Z,17.50
2023-03-31T19:21:17.447Z,17.48
2023-03-31T19:23:44.388Z,17.45
2023-03-31T19:26:15.761Z,17.42
2023-03-31T19:28:42.399Z,17.38
2023-03-31T19:31:10.669Z,17.33
2023-03-31T19:33:37.375Z,17.33
2023-03-31T19:36:03.862Z,17.32
2023-03-31T19:38:32.434Z,17.30
2023-03-31T19:41:00.162Z,17.30
2023-03-31T19:43:27.691Z,17.33
2023-03-31T19:45:57.495Z,17.32
2023-03-31T19:48:26.174Z,17.30
2023-03-31T19:50:59.533Z,17.29
2023-03-31T19:53:27.183Z,17.28
2023-03-31T19:56:02.988Z,17.25
2023-03-31T19:58:30.985Z,17.26
2023-03-31T20:00:57.925Z,17.25
2023-03-31T20:03:25.877Z,17.23
2023-03-31T20:05:54.004Z,17.21
2023-03-31T20:08:20.701Z,17.22
2023-03-31T20:10:47.323Z,17.23
2023-03-31T20:13:13.694Z,17.24
2023-03-31T20:15:41.077Z,17.23
2023-03-31T20:18:07.838Z,17.23
2023-03-31T20:20:34.297Z,17.25
2023-03-31T20:23:00.936Z,17.25
2023-03-31T20:25:27.484Z,17.27
2023-03-31T20:27:53.951Z,17.27
2023-03-31T20:30:20.550Z,17.29
2023-03-31T20:32:47.151Z,17.30
2023-03-31T20:35:13.564Z,17.31
2023-03-31T20:37:39.946Z,17.31
2023-03-31T20:40:06.959Z,17.32
2023-03-31T20:42:33.322Z,17.32
2023-03-31T20:44:59.914Z,17.33
2023-03-31T20:47:26.468Z,17.32
2023-03-31T20:49:52.913Z,17.31
2023-03-31T20:52:19.258Z,17.31
2023-03-31T20:54:45.820Z,17.30
2023-03-31T20:57:12.224Z,17.27
2023-03-31T20:59:39.338Z,17.27
2023-03-31T21:02:06.306Z,17.25
2023-03-31T21:04:32.874Z,17.23
2023-03-31T21:06:59.276Z,17.20
2023-03-31T21:09:25.844Z,17.18
2023-03-31T21:11:52.567Z,17.17
2023-03-31T21:14:19.172Z,17.14
2023-03-31T21:16:45.760Z,17.12
2023-03-31T21:19:12.427Z,17.09
2023-03-31T21:21:41.068Z,17.07
2023-03-31T21:24:09.063Z,17.04
2023-03-31T21:26:35.476Z,17.03
2023-03-31T21:29:01.874Z,17.00
2023-03-31T21:31:28.361Z,16.99
2023-03-31T21:33:57.684Z,16.98
2023-03-31T21:36:25.219Z,16.96
2023-03-31T21:38:57.489Z,16.92
2023-03-31T21:41:29.742Z,16.90
2023-03-31T21:43:57.962Z,16.91
2023-03-31T21:46:27.346Z,16.90
2023-03-31T21:48:54.686Z,16.94
2023-03-31T21:51:22.382Z,16.92
2023-03-31T21:53:50.105Z,16.90
2023-03-31T21:56:16.519Z,16.88
2023-03-31T21:58:43.154Z,16.86
2023-03-31T22:01:09.900Z,16.85
2023-03-31T22:03:36.711Z,16.84
2023-03-31T22:06:07.024Z,16.82
2023-03-31T22:08:34.702Z,16.80
2023-03-31T22:11:01.097Z,16.81
2023-03-31T22:13:28.530Z,16.80
2023-03-31T22:15:56.335Z,16.80
2023-03-31T22:18:23.052Z,16.80
2023-03-31T22:20:50.734Z,16.80
2023-03-31T22:23:17.721Z,16.80
2023-03-31T22:25:44.098Z,16.79
2023-03-31T22:28:10.914Z,16.78
2023-03-31T22:30:37.863Z,16.78
2023-03-31T22:33:04.506Z,16.76
2023-03-31T22:35:31.238Z,16.77
2023-03-31T22:37:57.947Z,16.76
2023-03-31T22:40:24.660Z,16.76
2023-03-31T22:42:51.035Z,16.76
2023-03-31T22:45:17.722Z,16.77
2023-03-31T22:47:44.182Z,16.76
2023-03-31T22:50:11.327Z,16.77
2023-03-31T22:52:38.070Z,16.78
2023-03-31T22:55:05.402Z,16.79
2023-03-31T22:57:32.321Z,16.79
2023-03-31T22:59:58.969Z,16.79
2023-03-31T23:02:25.427Z,16.79
2023-03-31T23:04:51.814Z,16.78
2023-03-31T23:07:18.180Z,16.78
2023-03-31T23:09:44.512Z,16.76
2023-03-31T23:12:10.935Z,16.77
2023-03-31T23:14:37.598Z,16.73
2023-03-31T23:17:04.088Z,16.73
2023-03-31T23:19:30.695Z,16.72
2023-03-31T23:21:58.321Z,16.72
2023-03-31T23:24:26.046Z,16.70
2023-03-31T23:26:52.466Z,16.69
2023-03-31T23:29:18.818Z,16.68
2023-03-31T23:31:45.460Z,16.67
2023-03-31T23:34:13.889Z,16.67
2023-03-31T23:36:40.488Z,16.70
2023-03-31T23:39:06.831Z,16.68
2023-03-31T23:41:33.580Z,16.70
2023-03-31T23:44:00.583Z,16.69
2023-03-31T23:46:26.959Z,16.69
2023-03-31T23:48:53.675Z,16.69
2023-03-31T23:51:20.376Z,16.67
2023-03-31T23:53:46.801Z,16.67
2023-03-31T23:56:13.936Z,16.67
2023-03-31T23:58:42.821Z,16.64
